sensor_id;sensor_type;location;lat;lon;timestamp;pressure;altitude;pressure_sealevel;temperature;humidity
45403;BME280;47427;51.976;5.326;2022-08-21T00:02:24;101629.88;;;15.23;85.28
45403;BME280;47427;51.976;5.326;2022-08-21T00:05:49;101643.09;;;15.23;85.46
45403;BME280;47427;51.976;5.326;2022-08-21T00:09:12;101634.16;;;15.16;85.91
45403;BME280;47427;51.976;5.326;2022-08-21T00:12:35;101639.38;;;15.13;86.24
45403;BME280;47427;51.976;5.326;2022-08-21T00:15:58;101634.91;;;15.11;86.31
45403;BME280;47427;51.976;5.326;2022-08-21T00:19:40;101607.28;;;14.95;86.35
45403;BME280;47427;51.976;5.326;2022-08-21T00:23:03;101629.41;;;15.00;86.60
45403;BME280;47427;51.976;5.326;2022-08-21T00:26:26;101625.84;;;14.97;86.88
45403;BME280;47427;51.976;5.326;2022-08-21T00:29:49;101639.16;;;15.03;87.22
45403;BME280;47427;51.976;5.326;2022-08-21T00:33:11;101631.97;;;14.95;87.15
45403;BME280;47427;51.976;5.326;2022-08-21T00:36:35;101610.72;;;14.89;87.33
45403;BME280;47427;51.976;5.326;2022-08-21T00:39:57;101630.19;;;14.94;87.51
45403;BME280;47427;51.976;5.326;2022-08-21T00:43:28;101624.81;;;14.90;87.81
45403;BME280;47427;51.976;5.326;2022-08-21T00:46:51;101636.31;;;14.93;87.76
45403;BME280;47427;51.976;5.326;2022-08-21T00:50:13;101615.00;;;14.84;87.98
45403;BME280;47427;51.976;5.326;2022-08-21T00:53:40;101624.69;;;14.84;88.16
45403;BME280;47427;51.976;5.326;2022-08-21T00:57:10;101633.50;;;14.84;88.27
45403;BME280;47427;51.976;5.326;2022-08-21T01:00:37;101621.06;;;14.80;88.43
45403;BME280;47427;51.976;5.326;2022-08-21T01:04:02;101626.41;;;14.83;88.78
45403;BME280;47427;51.976;5.326;2022-08-21T01:07:23;101629.06;;;14.83;88.90
45403;BME280;47427;51.976;5.326;2022-08-21T01:10:48;101622.88;;;14.83;88.88
45403;BME280;47427;51.976;5.326;2022-08-21T01:14:12;101620.19;;;14.80;89.17
45403;BME280;47427;51.976;5.326;2022-08-21T01:17:34;101629.00;;;14.80;89.51
45403;BME280;47427;51.976;5.326;2022-08-21T01:21:21;101620.03;;;14.72;89.24
45403;BME280;47427;51.976;5.326;2022-08-21T01:24:42;101628.00;;;14.75;89.52
45403;BME280;47427;51.976;5.326;2022-08-21T01:28:24;101600.41;;;14.61;89.80
45403;BME280;47427;51.976;5.326;2022-08-21T01:31:47;101633.19;;;14.70;89.78
45403;BME280;47427;51.976;5.326;2022-08-21T01:35:12;101620.69;;;14.63;90.07
45403;BME280;47427;51.976;5.326;2022-08-21T01:38:35;101637.53;;;14.67;89.96
45403;BME280;47427;51.976;5.326;2022-08-21T01:41:57;101625.97;;;14.62;90.14
45403;BME280;47427;51.976;5.326;2022-08-21T01:45:20;101625.09;;;14.61;90.31
45403;BME280;47427;51.976;5.326;2022-08-21T01:48:43;101608.09;;;14.51;90.50
45403;BME280;47427;51.976;5.326;2022-08-21T01:52:06;101608.94;;;14.50;90.86
45403;BME280;47427;51.976;5.326;2022-08-21T01:55:31;101620.44;;;14.52;90.62
45403;BME280;47427;51.976;5.326;2022-08-21T01:58:52;101605.31;;;14.45;90.57
45403;BME280;47427;51.976;5.326;2022-08-21T02:02:15;101618.63;;;14.50;90.35
45403;BME280;47427;51.976;5.326;2022-08-21T02:05:38;101613.34;;;14.50;90.69
45403;BME280;47427;51.976;5.326;2022-08-21T02:09:00;101612.34;;;14.43;90.63
45403;BME280;47427;51.976;5.326;2022-08-21T02:12:22;101609.69;;;14.43;90.89
45403;BME280;47427;51.976;5.326;2022-08-21T02:15:44;101605.25;;;14.42;91.19
45403;BME280;47427;51.976;5.326;2022-08-21T02:19:06;101601.66;;;14.39;91.02
45403;BME280;47427;51.976;5.326;2022-08-21T02:22:27;101599.84;;;14.38;91.14
45403;BME280;47427;51.976;5.326;2022-08-21T02:25:49;101610.47;;;14.39;91.15
45403;BME280;47427;51.976;5.326;2022-08-21T02:29:10;101598.03;;;14.35;91.19
45403;BME280;47427;51.976;5.326;2022-08-21T02:32:33;101594.50;;;14.35;91.17
45403;BME280;47427;51.976;5.326;2022-08-21T02:35:56;101589.22;;;14.33;91.26
45403;BME280;47427;51.976;5.326;2022-08-21T02:39:17;101591.00;;;14.34;91.48
45403;BME280;47427;51.976;5.326;2022-08-21T02:43:00;101583.97;;;14.35;91.25
45403;BME280;47427;51.976;5.326;2022-08-21T02:46:23;101581.38;;;14.38;91.23
45403;BME280;47427;51.976;5.326;2022-08-21T02:50:06;101585.84;;;14.40;91.31
45403;BME280;47427;51.976;5.326;2022-08-21T02:53:30;101588.41;;;14.36;91.73
45403;BME280;47427;51.976;5.326;2022-08-21T02:56:51;101583.78;;;14.27;91.85
45403;BME280;47427;51.976;5.326;2022-08-21T03:00:16;101583.78;;;14.27;91.93
45403;BME280;47427;51.976;5.326;2022-08-21T03:03:42;101580.03;;;14.17;92.19
45403;BME280;47427;51.976;5.326;2022-08-21T03:07:05;101569.41;;;14.14;92.00
45403;BME280;47427;51.976;5.326;2022-08-21T03:10:28;101571.16;;;14.14;92.53
45403;BME280;47427;51.976;5.326;2022-08-21T03:13:50;101569.28;;;14.08;92.47
45403;BME280;47427;51.976;5.326;2022-08-21T03:17:12;101570.94;;;14.03;92.63
45403;BME280;47427;51.976;5.326;2022-08-21T03:20:38;101576.16;;;14.01;92.80
45403;BME280;47427;51.976;5.326;2022-08-21T03:23:59;101571.66;;;13.97;93.13
45403;BME280;47427;51.976;5.326;2022-08-21T03:27:22;101581.38;;;13.98;93.53
45403;BME280;47427;51.976;5.326;2022-08-21T03:30:49;101568.94;;;13.94;93.43
45403;BME280;47427;51.976;5.326;2022-08-21T03:34:12;101570.75;;;13.95;93.31
45403;BME280;47427;51.976;5.326;2022-08-21T03:37:35;101562.72;;;13.91;93.44
45403;BME280;47427;51.976;5.326;2022-08-21T03:40:57;101556.38;;;13.84;93.68
45403;BME280;47427;51.976;5.326;2022-08-21T03:44:20;101546.53;;;13.77;93.75
45403;BME280;47427;51.976;5.326;2022-08-21T03:48:03;101552.69;;;13.76;94.31
45403;BME280;47427;51.976;5.326;2022-08-21T03:51:26;101559.84;;;13.81;94.47
45403;BME280;47427;51.976;5.326;2022-08-21T03:54:48;101542.81;;;13.69;94.45
45403;BME280;47427;51.976;5.326;2022-08-21T03:58:17;101556.84;;;13.66;94.59
45403;BME280;47427;51.976;5.326;2022-08-21T04:01:50;101559.59;;;13.72;94.91
45403;BME280;47427;51.976;5.326;2022-08-21T04:05:14;101557.66;;;13.63;94.99
45403;BME280;47427;51.976;5.326;2022-08-21T04:08:49;101556.69;;;13.60;94.94
45403;BME280;47427;51.976;5.326;2022-08-21T04:12:11;101568.00;;;13.56;95.09
45403;BME280;47427;51.976;5.326;2022-08-21T04:15:34;101564.47;;;13.55;95.41
45403;BME280;47427;51.976;5.326;2022-08-21T04:18:56;101574.09;;;13.53;95.21
45403;BME280;47427;51.976;5.326;2022-08-21T04:22:18;101573.88;;;13.46;95.39
45403;BME280;47427;51.976;5.326;2022-08-21T04:25:41;101578.22;;;13.43;95.60
45403;BME280;47427;51.976;5.326;2022-08-21T04:29:03;101581.66;;;13.41;96.07
45403;BME280;47427;51.976;5.326;2022-08-21T04:32:27;101575.56;;;13.42;96.05
45403;BME280;47427;51.976;5.326;2022-08-21T04:35:51;101582.66;;;13.44;96.44
45403;BME280;47427;51.976;5.326;2022-08-21T04:39:13;101578.28;;;13.47;96.38
45403;BME280;47427;51.976;5.326;2022-08-21T04:42:48;101577.47;;;13.49;96.38
45403;BME280;47427;51.976;5.326;2022-08-21T04:46:14;101569.50;;;13.46;96.42
45403;BME280;47427;51.976;5.326;2022-08-21T04:49:36;101574.84;;;13.49;96.48
45403;BME280;47427;51.976;5.326;2022-08-21T04:53:00;101583.69;;;13.51;96.49
45403;BME280;47427;51.976;5.326;2022-08-21T04:56:28;101581.13;;;13.53;96.74
45403;BME280;47427;51.976;5.326;2022-08-21T04:59:53;101574.97;;;13.54;96.61
45403;BME280;47427;51.976;5.326;2022-08-21T05:03:17;101575.03;;;13.55;96.72
45403;BME280;47427;51.976;5.326;2022-08-21T05:06:41;101586.59;;;13.62;96.59
45403;BME280;47427;51.976;5.326;2022-08-21T05:10:07;101592.94;;;13.69;96.34
45403;BME280;47427;51.976;5.326;2022-08-21T05:13:31;101597.41;;;13.71;96.45
45403;BME280;47427;51.976;5.326;2022-08-21T05:16:53;101593.88;;;13.71;96.38
45403;BME280;47427;51.976;5.326;2022-08-21T05:20:36;101599.41;;;13.81;96.09
45403;BME280;47427;51.976;5.326;2022-08-21T05:23:58;101612.78;;;13.89;95.96
45403;BME280;47427;51.976;5.326;2022-08-21T05:27:19;101613.78;;;13.94;95.93
45403;BME280;47427;51.976;5.326;2022-08-21T05:30:42;101616.63;;;14.02;95.59
45403;BME280;47427;51.976;5.326;2022-08-21T05:34:04;101608.88;;;14.09;95.33
45403;BME280;47427;51.976;5.326;2022-08-21T05:37:27;101615.09;;;14.12;94.91
45403;BME280;47427;51.976;5.326;2022-08-21T05:40:50;101611.81;;;14.22;95.06
45403;BME280;47427;51.976;5.326;2022-08-21T05:44:16;101613.69;;;14.27;94.85
45403;BME280;47427;51.976;5.326;2022-08-21T05:48:27;101606.81;;;14.34;94.87
45403;BME280;47427;51.976;5.326;2022-08-21T05:51:49;101600.13;;;14.48;94.32
45403;BME280;47427;51.976;5.326;2022-08-21T05:55:12;101602.19;;;14.62;94.31
45403;BME280;47427;51.976;5.326;2022-08-21T05:58:34;101606.00;;;14.74;93.58
45403;BME280;47427;51.976;5.326;2022-08-21T06:02:01;101616.00;;;14.91;93.41
45403;BME280;47427;51.976;5.326;2022-08-21T06:05:24;101607.56;;;15.07;92.90
45403;BME280;47427;51.976;5.326;2022-08-21T06:08:46;101600.69;;;15.17;92.64
45403;BME280;47427;51.976;5.326;2022-08-21T06:12:11;101599.09;;;15.25;92.10
45403;BME280;47427;51.976;5.326;2022-08-21T06:15:33;101599.31;;;15.39;91.87
45403;BME280;47427;51.976;5.326;2022-08-21T06:18:55;101611.09;;;15.55;91.65
45403;BME280;47427;51.976;5.326;2022-08-21T06:22:37;101602.47;;;15.65;91.15
45403;BME280;47427;51.976;5.326;2022-08-21T06:26:02;101591.94;;;15.68;90.85
45403;BME280;47427;51.976;5.326;2022-08-21T06:29:25;101604.69;;;15.92;90.70
45403;BME280;47427;51.976;5.326;2022-08-21T06:32:46;101597.84;;;16.05;90.21
45403;BME280;47427;51.976;5.326;2022-08-21T06:36:09;101605.19;;;16.23;89.96
45403;BME280;47427;51.976;5.326;2022-08-21T06:39:32;101598.22;;;16.30;89.65
45403;BME280;47427;51.976;5.326;2022-08-21T06:42:54;101598.50;;;16.50;89.16
45403;BME280;47427;51.976;5.326;2022-08-21T06:46:17;101604.81;;;16.61;88.29
45403;BME280;47427;51.976;5.326;2022-08-21T06:49:38;101607.78;;;16.81;88.21
45403;BME280;47427;51.976;5.326;2022-08-21T06:53:07;101610.84;;;17.16;87.25
45403;BME280;47427;51.976;5.326;2022-08-21T06:56:29;101603.69;;;17.97;83.16
45403;BME280;47427;51.976;5.326;2022-08-21T06:59:51;101607.94;;;19.19;79.17
45403;BME280;47427;51.976;5.326;2022-08-21T07:03:27;101592.09;;;19.96;75.40
45403;BME280;47427;51.976;5.326;2022-08-21T07:06:49;101607.72;;;21.22;70.72
45403;BME280;47427;51.976;5.326;2022-08-21T07:10:14;101602.41;;;22.33;65.74
45403;BME280;47427;51.976;5.326;2022-08-21T07:13:37;101605.31;;;22.90;62.28
45403;BME280;47427;51.976;5.326;2022-08-21T07:16:59;101591.41;;;23.89;61.40
45403;BME280;47427;51.976;5.326;2022-08-21T07:20:22;101599.97;;;25.01;58.79
45403;BME280;47427;51.976;5.326;2022-08-21T07:23:49;101602.84;;;25.73;56.37
45403;BME280;47427;51.976;5.326;2022-08-21T07:27:11;101599.06;;;26.49;52.71
45403;BME280;47427;51.976;5.326;2022-08-21T07:30:34;101596.75;;;26.68;51.69
45403;BME280;47427;51.976;5.326;2022-08-21T07:33:56;101598.47;;;27.31;48.72
45403;BME280;47427;51.976;5.326;2022-08-21T07:37:19;101589.84;;;27.48;49.85
45403;BME280;47427;51.976;5.326;2022-08-21T07:40:43;101595.69;;;29.13;47.17
45403;BME280;47427;51.976;5.326;2022-08-21T07:44:04;101594.50;;;29.64;42.63
45403;BME280;47427;51.976;5.326;2022-08-21T07:47:27;101586.84;;;29.53;42.52
45403;BME280;47427;51.976;5.326;2022-08-21T07:50:49;101583.38;;;29.94;43.17
45403;BME280;47427;51.976;5.326;2022-08-21T07:54:12;101600.13;;;30.84;40.85
45403;BME280;47427;51.976;5.326;2022-08-21T07:57:35;101587.47;;;31.60;40.29
45403;BME280;47427;51.976;5.326;2022-08-21T08:00:56;101590.94;;;31.45;39.01
45403;BME280;47427;51.976;5.326;2022-08-21T08:04:19;101591.47;;;31.70;38.93
45403;BME280;47427;51.976;5.326;2022-08-21T08:07:41;101590.59;;;32.22;38.11
45403;BME280;47427;51.976;5.326;2022-08-21T08:11:03;101580.91;;;32.85;37.04
45403;BME280;47427;51.976;5.326;2022-08-21T08:14:26;101580.91;;;33.80;34.65
45403;BME280;47427;51.976;5.326;2022-08-21T08:17:48;101576.09;;;33.69;34.04
45403;BME280;47427;51.976;5.326;2022-08-21T08:21:12;101572.44;;;34.73;32.80
45403;BME280;47427;51.976;5.326;2022-08-21T08:24:38;101572.81;;;35.10;33.12
45403;BME280;47427;51.976;5.326;2022-08-21T08:28:00;101565.38;;;36.07;30.08
45403;BME280;47427;51.976;5.326;2022-08-21T08:31:23;101576.31;;;35.39;31.15
45403;BME280;47427;51.976;5.326;2022-08-21T08:34:45;101574.34;;;35.14;31.24
45403;BME280;47427;51.976;5.326;2022-08-21T08:38:09;101563.47;;;36.21;30.81
45403;BME280;47427;51.976;5.326;2022-08-21T08:41:32;101571.53;;;36.49;30.30
45403;BME280;47427;51.976;5.326;2022-08-21T08:45:10;101581.72;;;35.54;30.46
45403;BME280;47427;51.976;5.326;2022-08-21T08:48:58;101579.81;;;37.11;30.00
45403;BME280;47427;51.976;5.326;2022-08-21T08:52:51;101566.91;;;37.97;28.46
45403;BME280;47427;51.976;5.326;2022-08-21T08:56:13;101571.31;;;38.79;27.91
45403;BME280;47427;51.976;5.326;2022-08-21T08:59:44;101565.31;;;37.70;28.43
45403;BME280;47427;51.976;5.326;2022-08-21T09:03:10;101561.25;;;39.35;26.88
45403;BME280;47427;51.976;5.326;2022-08-21T09:10:38;101558.28;;;39.15;26.17
45403;BME280;47427;51.976;5.326;2022-08-21T09:18:34;101546.81;;;40.07;24.87
45403;BME280;47427;51.976;5.326;2022-08-21T09:25:51;101542.31;;;35.58;30.46
45403;BME280;47427;51.976;5.326;2022-08-21T09:29:21;101543.13;;;36.38;29.59
45403;BME280;47427;51.976;5.326;2022-08-21T09:32:45;101543.06;;;37.74;27.93
45403;BME280;47427;51.976;5.326;2022-08-21T09:36:08;101548.50;;;36.27;29.14
45403;BME280;47427;51.976;5.326;2022-08-21T09:39:40;101551.75;;;34.12;30.93
45403;BME280;47427;51.976;5.326;2022-08-21T09:43:18;101542.59;;;35.41;29.79
45403;BME280;47427;51.976;5.326;2022-08-21T09:46:50;101554.72;;;36.29;28.37
45403;BME280;47427;51.976;5.326;2022-08-21T09:50:27;101549.78;;;37.22;26.93
45403;BME280;47427;51.976;5.326;2022-08-21T09:57:30;101551.31;;;38.32;26.19
45403;BME280;47427;51.976;5.326;2022-08-21T10:01:04;101544.03;;;39.21;26.24
45403;BME280;47427;51.976;5.326;2022-08-21T10:04:34;101550.34;;;38.67;26.73
45403;BME280;47427;51.976;5.326;2022-08-21T10:07:56;101545.97;;;38.87;25.46
45403;BME280;47427;51.976;5.326;2022-08-21T10:11:32;101544.22;;;40.26;24.83
45403;BME280;47427;51.976;5.326;2022-08-21T10:15:27;101550.00;;;40.64;22.94
45403;BME280;47427;51.976;5.326;2022-08-21T10:19:15;101550.34;;;41.11;22.75
45403;BME280;47427;51.976;5.326;2022-08-21T10:23:07;101545.78;;;43.29;20.61
45403;BME280;47427;51.976;5.326;2022-08-21T10:26:46;101536.38;;;43.22;20.28
45403;BME280;47427;51.976;5.326;2022-08-21T10:30:38;101528.06;;;44.20;20.49
45403;BME280;47427;51.976;5.326;2022-08-21T10:34:27;101533.69;;;44.62;19.54
45403;BME280;47427;51.976;5.326;2022-08-21T10:42:12;101526.91;;;45.07;18.24
45403;BME280;47427;51.976;5.326;2022-08-21T10:45:58;101520.75;;;44.37;16.75
45403;BME280;47427;51.976;5.326;2022-08-21T10:49:44;101517.25;;;42.93;18.80
45403;BME280;47427;51.976;5.326;2022-08-21T10:56:51;101509.97;;;40.40;22.07
45403;BME280;47427;51.976;5.326;2022-08-21T11:00:23;101502.09;;;42.69;19.44
45403;BME280;47427;51.976;5.326;2022-08-21T11:04:07;101511.78;;;42.83;18.19
45403;BME280;47427;51.976;5.326;2022-08-21T11:08:02;101502.94;;;43.87;18.63
45403;BME280;47427;51.976;5.326;2022-08-21T11:12:16;101505.78;;;44.55;16.44
45403;BME280;47427;51.976;5.326;2022-08-21T11:16:08;101511.69;;;44.61;16.44
45403;BME280;47427;51.976;5.326;2022-08-21T11:19:50;101489.75;;;44.33;16.27
45403;BME280;47427;51.976;5.326;2022-08-21T11:23:36;101489.81;;;44.41;17.54
45403;BME280;47427;51.976;5.326;2022-08-21T11:27:33;101492.72;;;44.05;17.21
45403;BME280;47427;51.976;5.326;2022-08-21T11:38:42;101487.81;;;39.05;21.93
45403;BME280;47427;51.976;5.326;2022-08-21T11:45:54;101496.22;;;38.80;21.23
45403;BME280;47427;51.976;5.326;2022-08-21T11:49:50;101496.78;;;39.07;21.61
45403;BME280;47427;51.976;5.326;2022-08-21T11:53:33;101492.78;;;34.68;26.75
45403;BME280;47427;51.976;5.326;2022-08-21T11:57:17;101502.03;;;40.97;21.29
45403;BME280;47427;51.976;5.326;2022-08-21T12:04:33;101500.59;;;38.38;21.59
45403;BME280;47427;51.976;5.326;2022-08-21T12:12:10;101508.56;;;36.63;22.97
45403;BME280;47427;51.976;5.326;2022-08-21T12:15:32;101499.94;;;33.07;28.56
45403;BME280;47427;51.976;5.326;2022-08-21T12:19:04;101496.47;;;34.53;26.67
45403;BME280;47427;51.976;5.326;2022-08-21T12:22:39;101494.16;;;34.61;27.46
45403;BME280;47427;51.976;5.326;2022-08-21T12:26:27;101494.63;;;34.53;27.76
45403;BME280;47427;51.976;5.326;2022-08-21T12:30:05;101494.34;;;34.87;26.36
45403;BME280;47427;51.976;5.326;2022-08-21T12:33:37;101498.06;;;33.54;28.40
45403;BME280;47427;51.976;5.326;2022-08-21T12:37:14;101495.94;;;32.81;27.95
45403;BME280;47427;51.976;5.326;2022-08-21T12:40:48;101486.44;;;31.36;29.73
45403;BME280;47427;51.976;5.326;2022-08-21T12:44:50;101491.34;;;33.75;27.93
45403;BME280;47427;51.976;5.326;2022-08-21T12:49:00;101504.56;;;31.36;29.79
45403;BME280;47427;51.976;5.326;2022-08-21T12:52:40;101500.84;;;30.43;31.25
45403;BME280;47427;51.976;5.326;2022-08-21T12:56:09;101509.09;;;30.01;34.57
45403;BME280;47427;51.976;5.326;2022-08-21T12:59:32;101514.16;;;30.09;34.96
45403;BME280;47427;51.976;5.326;2022-08-21T13:02:57;101502.91;;;31.85;32.67
45403;BME280;47427;51.976;5.326;2022-08-21T13:06:21;101509.72;;;32.78;28.11
45403;BME280;47427;51.976;5.326;2022-08-21T13:13:43;101510.38;;;29.72;32.96
45403;BME280;47427;51.976;5.326;2022-08-21T13:17:10;101513.44;;;28.74;35.10
45403;BME280;47427;51.976;5.326;2022-08-21T13:20:40;101508.38;;;29.55;34.52
45403;BME280;47427;51.976;5.326;2022-08-21T13:24:21;101505.50;;;35.78;25.92
45403;BME280;47427;51.976;5.326;2022-08-21T13:27:58;101514.91;;;37.72;22.21
45403;BME280;47427;51.976;5.326;2022-08-21T13:31:25;101515.28;;;38.14;22.30
45403;BME280;47427;51.976;5.326;2022-08-21T13:34:50;101510.81;;;38.58;22.11
45403;BME280;47427;51.976;5.326;2022-08-21T13:38:11;101512.84;;;39.55;22.34
45403;BME280;47427;51.976;5.326;2022-08-21T13:41:36;101513.06;;;40.26;20.29
45403;BME280;47427;51.976;5.326;2022-08-21T13:44:59;101516.72;;;40.26;20.14
45403;BME280;47427;51.976;5.326;2022-08-21T13:48:24;101516.13;;;40.63;19.82
45403;BME280;47427;51.976;5.326;2022-08-21T13:51:48;101510.22;;;39.21;20.99
45403;BME280;47427;51.976;5.326;2022-08-21T13:55:16;101507.22;;;38.58;20.39
45403;BME280;47427;51.976;5.326;2022-08-21T13:58:46;101507.56;;;38.76;20.51
45403;BME280;47427;51.976;5.326;2022-08-21T14:02:23;101507.09;;;39.26;21.55
45403;BME280;47427;51.976;5.326;2022-08-21T14:05:46;101499.56;;;38.84;20.48
45403;BME280;47427;51.976;5.326;2022-08-21T14:09:12;101504.50;;;36.69;22.40
45403;BME280;47427;51.976;5.326;2022-08-21T14:12:45;101495.34;;;38.01;21.55
45403;BME280;47427;51.976;5.326;2022-08-21T14:16:21;101495.22;;;39.36;19.67
45403;BME280;47427;51.976;5.326;2022-08-21T14:19:46;101499.59;;;38.16;21.54
45403;BME280;47427;51.976;5.326;2022-08-21T14:23:10;101498.09;;;36.18;22.97
45403;BME280;47427;51.976;5.326;2022-08-21T14:26:42;101499.81;;;35.14;24.42
45403;BME280;47427;51.976;5.326;2022-08-21T14:30:21;101501.03;;;33.65;25.70
45403;BME280;47427;51.976;5.326;2022-08-21T14:33:43;101499.34;;;35.62;24.72
45403;BME280;47427;51.976;5.326;2022-08-21T14:37:05;101504.56;;;34.55;26.35
45403;BME280;47427;51.976;5.326;2022-08-21T14:40:27;101509.97;;;32.73;27.36
45403;BME280;47427;51.976;5.326;2022-08-21T14:43:51;101502.13;;;31.48;29.58
45403;BME280;47427;51.976;5.326;2022-08-21T14:47:13;101504.19;;;30.69;29.47
45403;BME280;47427;51.976;5.326;2022-08-21T14:50:36;101502.69;;;30.03;31.27
45403;BME280;47427;51.976;5.326;2022-08-21T14:53:59;101498.72;;;29.90;32.09
45403;BME280;47427;51.976;5.326;2022-08-21T14:57:52;101505.38;;;29.41;32.61
45403;BME280;47427;51.976;5.326;2022-08-21T15:01:17;101505.97;;;29.03;33.88
45403;BME280;47427;51.976;5.326;2022-08-21T15:04:40;101518.03;;;28.49;35.57
45403;BME280;47427;51.976;5.326;2022-08-21T15:08:04;101523.59;;;28.44;35.43
45403;BME280;47427;51.976;5.326;2022-08-21T15:11:25;101526.66;;;28.34;35.73
45403;BME280;47427;51.976;5.326;2022-08-21T15:14:48;101520.16;;;27.89;35.68
45403;BME280;47427;51.976;5.326;2022-08-21T15:18:11;101529.84;;;27.41;36.99
45403;BME280;47427;51.976;5.326;2022-08-21T15:21:32;101531.66;;;27.41;37.96
45403;BME280;47427;51.976;5.326;2022-08-21T15:25:14;101522.22;;;27.28;38.03
45403;BME280;47427;51.976;5.326;2022-08-21T15:28:37;101532.50;;;27.15;38.59
45403;BME280;47427;51.976;5.326;2022-08-21T15:32:21;101533.41;;;27.42;37.58
45403;BME280;47427;51.976;5.326;2022-08-21T15:35:45;101532.81;;;28.37;37.12
45403;BME280;47427;51.976;5.326;2022-08-21T15:39:07;101540.63;;;28.46;36.63
45403;BME280;47427;51.976;5.326;2022-08-21T15:42:30;101535.34;;;28.67;36.47
45403;BME280;47427;51.976;5.326;2022-08-21T15:45:52;101532.97;;;30.12;34.25
45403;BME280;47427;51.976;5.326;2022-08-21T15:49:15;101538.63;;;31.05;33.02
45403;BME280;47427;51.976;5.326;2022-08-21T15:52:38;101541.72;;;30.18;33.95
45403;BME280;47427;51.976;5.326;2022-08-21T15:56:01;101540.63;;;31.91;32.60
45403;BME280;47427;51.976;5.326;2022-08-21T15:59:24;101535.09;;;31.03;33.20
45403;BME280;47427;51.976;5.326;2022-08-21T16:02:57;101538.59;;;29.87;34.42
45403;BME280;47427;51.976;5.326;2022-08-21T16:06:19;101548.81;;;28.90;35.11
45403;BME280;47427;51.976;5.326;2022-08-21T16:09:42;101537.88;;;28.93;34.87
45403;BME280;47427;51.976;5.326;2022-08-21T16:13:24;101540.44;;;28.26;36.03
45403;BME280;47427;51.976;5.326;2022-08-21T16:16:48;101526.00;;;28.02;37.82
45403;BME280;47427;51.976;5.326;2022-08-21T16:20:29;101516.03;;;27.77;37.65
45403;BME280;47427;51.976;5.326;2022-08-21T16:23:52;101523.34;;;27.20;38.85
45403;BME280;47427;51.976;5.326;2022-08-21T16:27:15;101533.88;;;27.00;39.91
45403;BME280;47427;51.976;5.326;2022-08-21T16:30:38;101530.31;;;26.70;39.13
45403;BME280;47427;51.976;5.326;2022-08-21T16:34:20;101524.00;;;26.38;41.20
45403;BME280;47427;51.976;5.326;2022-08-21T16:37:43;101520.22;;;26.14;40.83
45403;BME280;47427;51.976;5.326;2022-08-21T16:41:12;101538.44;;;26.03;41.85
45403;BME280;47427;51.976;5.326;2022-08-21T16:44:36;101524.78;;;25.76;42.36
45403;BME280;47427;51.976;5.326;2022-08-21T16:47:57;101521.63;;;25.60;42.85
45403;BME280;47427;51.976;5.326;2022-08-21T16:51:19;101533.91;;;25.70;43.32
45403;BME280;47427;51.976;5.326;2022-08-21T16:55:02;101528.34;;;25.42;43.71
45403;BME280;47427;51.976;5.326;2022-08-21T16:58:31;101539.94;;;25.05;43.95
45403;BME280;47427;51.976;5.326;2022-08-21T17:01:55;101543.72;;;24.97;45.35
45403;BME280;47427;51.976;5.326;2022-08-21T17:05:18;101535.16;;;24.79;45.26
45403;BME280;47427;51.976;5.326;2022-08-21T17:08:42;101536.31;;;24.66;45.24
45403;BME280;47427;51.976;5.326;2022-08-21T17:12:04;101546.59;;;24.46;46.28
45403;BME280;47427;51.976;5.326;2022-08-21T17:15:34;101536.13;;;24.30;46.83
45403;BME280;47427;51.976;5.326;2022-08-21T17:18:57;101533.84;;;24.10;47.76
45403;BME280;47427;51.976;5.326;2022-08-21T17:22:19;101542.81;;;24.08;47.96
45403;BME280;47427;51.976;5.326;2022-08-21T17:25:47;101536.03;;;23.88;48.24
45403;BME280;47427;51.976;5.326;2022-08-21T17:29:14;101529.97;;;23.77;49.22
45403;BME280;47427;51.976;5.326;2022-08-21T17:32:37;101538.09;;;23.71;49.04
45403;BME280;47427;51.976;5.326;2022-08-21T17:35:59;101535.50;;;23.66;49.42
45403;BME280;47427;51.976;5.326;2022-08-21T17:39:22;101542.66;;;23.66;49.36
45403;BME280;47427;51.976;5.326;2022-08-21T17:42:45;101540.13;;;23.58;49.89
45403;BME280;47427;51.976;5.326;2022-08-21T17:46:21;101544.84;;;23.42;49.13
45403;BME280;47427;51.976;5.326;2022-08-21T17:49:44;101531.59;;;23.31;48.94
45403;BME280;47427;51.976;5.326;2022-08-21T17:53:07;101535.22;;;23.29;49.30
45403;BME280;47427;51.976;5.326;2022-08-21T17:56:35;101535.19;;;23.30;49.93
45403;BME280;47427;51.976;5.326;2022-08-21T17:59:57;101533.50;;;23.23;50.69
45403;BME280;47427;51.976;5.326;2022-08-21T18:03:21;101526.59;;;23.10;51.12
45403;BME280;47427;51.976;5.326;2022-08-21T18:06:44;101547.16;;;23.06;51.75
45403;BME280;47427;51.976;5.326;2022-08-21T18:10:10;101544.66;;;22.92;52.10
45403;BME280;47427;51.976;5.326;2022-08-21T18:13:35;101536.72;;;22.85;51.46
45403;BME280;47427;51.976;5.326;2022-08-21T18:16:59;101542.19;;;22.76;53.79
45403;BME280;47427;51.976;5.326;2022-08-21T18:20:22;101539.66;;;22.66;54.83
45403;BME280;47427;51.976;5.326;2022-08-21T18:23:46;101541.56;;;22.55;55.74
45403;BME280;47427;51.976;5.326;2022-08-21T18:27:08;101544.28;;;22.50;56.89
45403;BME280;47427;51.976;5.326;2022-08-21T18:30:36;101540.88;;;22.38;57.25
45403;BME280;47427;51.976;5.326;2022-08-21T18:34:05;101545.47;;;22.26;58.62
45403;BME280;47427;51.976;5.326;2022-08-21T18:37:29;101537.59;;;22.11;59.21
45403;BME280;47427;51.976;5.326;2022-08-21T18:40:53;101536.75;;;22.06;59.34
45403;BME280;47427;51.976;5.326;2022-08-21T18:44:17;101537.78;;;21.93;59.97
45403;BME280;47427;51.976;5.326;2022-08-21T18:47:48;101547.66;;;21.81;60.35
45403;BME280;47427;51.976;5.326;2022-08-21T18:51:11;101552.22;;;21.70;60.61
45403;BME280;47427;51.976;5.326;2022-08-21T18:54:33;101549.63;;;21.59;60.82